Terminal Aerodrome Forecast
Issued by NWS

Home | Current Version | Previous Version | Graphics & Text | Print | Product List | Glossary On
Versions: 1 2 3 4 5 6 7 8 9 10 11 12 13 14 15 16 17 18 19 20 21 22 23 24 25 26 27 28 29 30 31 32 33 34 35 36 37 38 39
000
FTUS43 KGRB 050424 AAB
TAFRHI
TAF AMD
KRHI 050424Z 0504/0524 25005KT P6SM SCT025 OVC035
      TEMPO 0504/0508 BKN025
     FM051000 31005KT P6SM SCT025
     FM051600 25006KT P6SM SCT030 BKN120=

USA.gov is the U.S. government's official web portal to all federal, state and local government web resources and services.